sensor_id;sensor_type;location;lat;lon;timestamp;temperature;humidity
5802;DHT22;2927;49.366;8.530;2022-09-21T00:00:04;9.70;1.00
5802;DHT22;2927;49.366;8.530;2022-09-21T00:02:30;9.60;15.40
5802;DHT22;2927;49.366;8.530;2022-09-21T00:04:55;9.60;99.90
5802;DHT22;2927;49.366;8.530;2022-09-21T00:07:21;9.60;99.90
5802;DHT22;2927;49.366;8.530;2022-09-21T00:09:46;9.60;88.30
5802;DHT22;2927;49.366;8.530;2022-09-21T00:12:12;9.60;66.00
5802;DHT22;2927;49.366;8.530;2022-09-21T00:14:37;9.50;25.70
5802;DHT22;2927;49.366;8.530;2022-09-21T00:17:03;9.50;1.00
5802;DHT22;2927;49.366;8.530;2022-09-21T00:19:29;9.40;30.60
5802;DHT22;2927;49.366;8.530;2022-09-21T00:21:55;9.40;23.80
5802;DHT22;2927;49.366;8.530;2022-09-21T00:24:21;9.30;42.80
5802;DHT22;2927;49.366;8.530;2022-09-21T00:26:46;9.30;76.10
5802;DHT22;2927;49.366;8.530;2022-09-21T00:29:12;9.30;65.10
5802;DHT22;2927;49.366;8.530;2022-09-21T00:31:38;9.20;50.00
5802;DHT22;2927;49.366;8.530;2022-09-21T00:34:04;9.20;94.90
5802;DHT22;2927;49.366;8.530;2022-09-21T00:36:32;9.30;62.70
5802;DHT22;2927;49.366;8.530;2022-09-21T00:38:59;9.20;36.00
5802;DHT22;2927;49.366;8.530;2022-09-21T00:41:28;9.20;48.70
5802;DHT22;2927;49.366;8.530;2022-09-21T00:44:22;9.10;43.40
5802;DHT22;2927;49.366;8.530;2022-09-21T00:46:50;9.10;7.70
5802;DHT22;2927;49.366;8.530;2022-09-21T00:49:17;9.00;22.10
5802;DHT22;2927;49.366;8.530;2022-09-21T00:51:44;9.00;30.70
5802;DHT22;2927;49.366;8.530;2022-09-21T00:54:14;9.00;33.50
5802;DHT22;2927;49.366;8.530;2022-09-21T00:56:43;9.00;21.60
5802;DHT22;2927;49.366;8.530;2022-09-21T00:59:10;9.00;1.00
5802;DHT22;2927;49.366;8.530;2022-09-21T01:01:38;9.00;1.00
5802;DHT22;2927;49.366;8.530;2022-09-21T01:04:04;8.90;1.00
5802;DHT22;2927;49.366;8.530;2022-09-21T01:06:31;8.90;1.00
5802;DHT22;2927;49.366;8.530;2022-09-21T01:08:58;8.90;1.00
5802;DHT22;2927;49.366;8.530;2022-09-21T01:14:42;8.80;42.70
5802;DHT22;2927;49.366;8.530;2022-09-21T01:23:01;8.70;31.80
5802;DHT22;2927;49.366;8.530;2022-09-21T01:25:55;8.80;92.90
5802;DHT22;2927;49.366;8.530;2022-09-21T01:31:00;8.70;53.40
5802;DHT22;2927;49.366;8.530;2022-09-21T01:33:44;8.70;82.60
5802;DHT22;2927;49.366;8.530;2022-09-21T01:36:17;8.80;99.90
5802;DHT22;2927;49.366;8.530;2022-09-21T01:38:48;8.70;65.00
5802;DHT22;2927;49.366;8.530;2022-09-21T01:41:17;8.60;92.30
5802;DHT22;2927;49.366;8.530;2022-09-21T01:43:50;8.60;99.90
5802;DHT22;2927;49.366;8.530;2022-09-21T01:46:19;8.70;99.90
5802;DHT22;2927;49.366;8.530;2022-09-21T01:48:49;8.70;99.40
5802;DHT22;2927;49.366;8.530;2022-09-21T01:51:19;8.60;99.90
5802;DHT22;2927;49.366;8.530;2022-09-21T01:53:55;8.60;99.90
5802;DHT22;2927;49.366;8.530;2022-09-21T01:56:23;8.70;99.90
5802;DHT22;2927;49.366;8.530;2022-09-21T02:01:42;8.70;45.20
5802;DHT22;2927;49.366;8.530;2022-09-21T02:04:11;8.50;54.50
5802;DHT22;2927;49.366;8.530;2022-09-21T02:06:42;8.50;99.90
5802;DHT22;2927;49.366;8.530;2022-09-21T02:09:09;8.50;99.90
5802;DHT22;2927;49.366;8.530;2022-09-21T02:11:35;8.50;99.90
5802;DHT22;2927;49.366;8.530;2022-09-21T02:14:18;8.50;99.90
5802;DHT22;2927;49.366;8.530;2022-09-21T02:24:45;8.40;99.90
5802;DHT22;2927;49.366;8.530;2022-09-21T02:35:20;8.30;99.90
5802;DHT22;2927;49.366;8.530;2022-09-21T02:38:00;8.30;99.90
5802;DHT22;2927;49.366;8.530;2022-09-21T02:40:30;8.20;99.90
5802;DHT22;2927;49.366;8.530;2022-09-21T02:43:19;8.20;99.90
5802;DHT22;2927;49.366;8.530;2022-09-21T02:45:53;8.20;99.90
5802;DHT22;2927;49.366;8.530;2022-09-21T02:48:32;8.20;99.90
5802;DHT22;2927;49.366;8.530;2022-09-21T02:51:04;8.20;99.90
5802;DHT22;2927;49.366;8.530;2022-09-21T02:53:33;8.30;99.90
5802;DHT22;2927;49.366;8.530;2022-09-21T02:56:01;8.30;69.10
5802;DHT22;2927;49.366;8.530;2022-09-21T02:58:36;8.30;87.50
5802;DHT22;2927;49.366;8.530;2022-09-21T03:01:04;8.20;27.30
5802;DHT22;2927;49.366;8.530;2022-09-21T03:03:31;8.10;75.20
5802;DHT22;2927;49.366;8.530;2022-09-21T03:05:57;8.00;65.20
5802;DHT22;2927;49.366;8.530;2022-09-21T03:08:23;8.00;99.90
5802;DHT22;2927;49.366;8.530;2022-09-21T03:10:48;8.00;99.90
5802;DHT22;2927;49.366;8.530;2022-09-21T03:13:15;8.00;99.90
5802;DHT22;2927;49.366;8.530;2022-09-21T03:15:41;8.00;99.90
5802;DHT22;2927;49.366;8.530;2022-09-21T03:18:08;8.10;99.90
5802;DHT22;2927;49.366;8.530;2022-09-21T03:20:35;8.10;99.90
5802;DHT22;2927;49.366;8.530;2022-09-21T03:23:01;8.00;99.90
5802;DHT22;2927;49.366;8.530;2022-09-21T03:25:27;7.90;99.90
5802;DHT22;2927;49.366;8.530;2022-09-21T03:27:53;7.80;99.90
5802;DHT22;2927;49.366;8.530;2022-09-21T03:30:20;7.80;99.90
5802;DHT22;2927;49.366;8.530;2022-09-21T03:32:50;7.80;99.90
5802;DHT22;2927;49.366;8.530;2022-09-21T03:35:17;7.80;99.90
5802;DHT22;2927;49.366;8.530;2022-09-21T03:37:43;7.80;99.90
5802;DHT22;2927;49.366;8.530;2022-09-21T03:40:09;7.70;99.90
5802;DHT22;2927;49.366;8.530;2022-09-21T03:42:35;7.70;99.90
5802;DHT22;2927;49.366;8.530;2022-09-21T03:45:01;7.50;99.90
5802;DHT22;2927;49.366;8.530;2022-09-21T03:47:27;7.60;99.90
5802;DHT22;2927;49.366;8.530;2022-09-21T03:49:53;7.60;99.90
5802;DHT22;2927;49.366;8.530;2022-09-21T03:52:19;7.50;99.90
5802;DHT22;2927;49.366;8.530;2022-09-21T03:54:44;7.50;99.90
5802;DHT22;2927;49.366;8.530;2022-09-21T03:57:10;7.50;99.90
5802;DHT22;2927;49.366;8.530;2022-09-21T03:59:35;7.50;99.90
5802;DHT22;2927;49.366;8.530;2022-09-21T04:02:01;7.50;99.90
5802;DHT22;2927;49.366;8.530;2022-09-21T04:04:26;7.50;99.90
5802;DHT22;2927;49.366;8.530;2022-09-21T04:06:52;7.60;99.90
5802;DHT22;2927;49.366;8.530;2022-09-21T04:09:17;7.70;99.90
5802;DHT22;2927;49.366;8.530;2022-09-21T04:11:46;7.60;73.30
5802;DHT22;2927;49.366;8.530;2022-09-21T04:14:13;7.50;27.30
5802;DHT22;2927;49.366;8.530;2022-09-21T04:16:38;7.30;15.90
5802;DHT22;2927;49.366;8.530;2022-09-21T04:19:04;7.20;19.40
5802;DHT22;2927;49.366;8.530;2022-09-21T04:21:29;7.30;58.70
5802;DHT22;2927;49.366;8.530;2022-09-21T04:23:55;7.40;21.50
5802;DHT22;2927;49.366;8.530;2022-09-21T04:26:26;7.40;6.50
5802;DHT22;2927;49.366;8.530;2022-09-21T04:28:53;7.30;8.80
5802;DHT22;2927;49.366;8.530;2022-09-21T04:31:20;7.30;22.00
5802;DHT22;2927;49.366;8.530;2022-09-21T04:33:50;7.30;36.90
5802;DHT22;2927;49.366;8.530;2022-09-21T04:36:17;7.30;83.80
5802;DHT22;2927;49.366;8.530;2022-09-21T04:38:43;7.40;99.90
5802;DHT22;2927;49.366;8.530;2022-09-21T04:41:09;7.40;99.90
5802;DHT22;2927;49.366;8.530;2022-09-21T04:43:35;7.40;99.90
5802;DHT22;2927;49.366;8.530;2022-09-21T04:46:08;7.40;99.90
5802;DHT22;2927;49.366;8.530;2022-09-21T04:48:34;7.30;99.90
5802;DHT22;2927;49.366;8.530;2022-09-21T04:51:01;7.30;99.90
5802;DHT22;2927;49.366;8.530;2022-09-21T04:53:27;7.30;99.90
5802;DHT22;2927;49.366;8.530;2022-09-21T04:55:53;7.30;99.90
5802;DHT22;2927;49.366;8.530;2022-09-21T04:58:19;7.30;99.90
5802;DHT22;2927;49.366;8.530;2022-09-21T05:00:48;7.30;99.90
5802;DHT22;2927;49.366;8.530;2022-09-21T05:03:15;7.40;99.90
5802;DHT22;2927;49.366;8.530;2022-09-21T05:05:46;7.40;99.90
5802;DHT22;2927;49.366;8.530;2022-09-21T05:08:11;7.40;99.90
5802;DHT22;2927;49.366;8.530;2022-09-21T05:10:37;7.50;99.90
5802;DHT22;2927;49.366;8.530;2022-09-21T05:13:02;7.50;99.90
5802;DHT22;2927;49.366;8.530;2022-09-21T05:15:28;7.50;99.90
5802;DHT22;2927;49.366;8.530;2022-09-21T05:17:53;7.60;99.90
5802;DHT22;2927;49.366;8.530;2022-09-21T05:20:19;7.70;99.90
5802;DHT22;2927;49.366;8.530;2022-09-21T05:22:44;7.70;99.90
5802;DHT22;2927;49.366;8.530;2022-09-21T05:25:10;7.80;99.90
5802;DHT22;2927;49.366;8.530;2022-09-21T05:27:35;7.80;99.90
5802;DHT22;2927;49.366;8.530;2022-09-21T05:30:01;7.70;99.90
5802;DHT22;2927;49.366;8.530;2022-09-21T05:32:44;7.70;99.90
5802;DHT22;2927;49.366;8.530;2022-09-21T05:35:23;7.80;99.90
5802;DHT22;2927;49.366;8.530;2022-09-21T05:38:16;7.80;99.90
5802;DHT22;2927;49.366;8.530;2022-09-21T05:40:43;7.80;99.90
5802;DHT22;2927;49.366;8.530;2022-09-21T05:43:10;7.70;99.90
5802;DHT22;2927;49.366;8.530;2022-09-21T05:45:43;7.80;99.90
5802;DHT22;2927;49.366;8.530;2022-09-21T05:48:10;7.90;99.90
5802;DHT22;2927;49.366;8.530;2022-09-21T05:59:58;8.10;99.90
5802;DHT22;2927;49.366;8.530;2022-09-21T06:04:38;8.30;99.90
5802;DHT22;2927;49.366;8.530;2022-09-21T06:07:04;8.40;99.90
5802;DHT22;2927;49.366;8.530;2022-09-21T06:09:29;8.40;99.90
5802;DHT22;2927;49.366;8.530;2022-09-21T06:11:55;8.40;99.90
5802;DHT22;2927;49.366;8.530;2022-09-21T06:14:21;8.50;99.90
5802;DHT22;2927;49.366;8.530;2022-09-21T06:16:50;8.50;99.90
5802;DHT22;2927;49.366;8.530;2022-09-21T06:19:16;8.60;99.90
5802;DHT22;2927;49.366;8.530;2022-09-21T06:21:41;8.70;99.90
5802;DHT22;2927;49.366;8.530;2022-09-21T06:24:08;8.80;99.90
5802;DHT22;2927;49.366;8.530;2022-09-21T06:26:34;8.90;99.90
5802;DHT22;2927;49.366;8.530;2022-09-21T06:28:59;8.90;99.90
5802;DHT22;2927;49.366;8.530;2022-09-21T06:31:26;9.10;99.90
5802;DHT22;2927;49.366;8.530;2022-09-21T06:33:52;9.20;99.90
5802;DHT22;2927;49.366;8.530;2022-09-21T06:36:17;9.20;99.90
5802;DHT22;2927;49.366;8.530;2022-09-21T06:38:43;9.30;99.90
5802;DHT22;2927;49.366;8.530;2022-09-21T06:41:09;9.40;99.90
5802;DHT22;2927;49.366;8.530;2022-09-21T06:43:35;9.40;99.90
5802;DHT22;2927;49.366;8.530;2022-09-21T06:46:02;9.60;99.90
5802;DHT22;2927;49.366;8.530;2022-09-21T06:48:29;9.50;99.90
5802;DHT22;2927;49.366;8.530;2022-09-21T06:50:59;9.30;99.90
5802;DHT22;2927;49.366;8.530;2022-09-21T06:53:25;9.30;99.90
5802;DHT22;2927;49.366;8.530;2022-09-21T06:55:51;9.40;99.90
5802;DHT22;2927;49.366;8.530;2022-09-21T06:58:17;9.60;99.90
5802;DHT22;2927;49.366;8.530;2022-09-21T07:00:43;9.60;99.90
5802;DHT22;2927;49.366;8.530;2022-09-21T07:03:10;9.80;99.90
5802;DHT22;2927;49.366;8.530;2022-09-21T07:05:38;10.00;99.90
5802;DHT22;2927;49.366;8.530;2022-09-21T07:08:04;10.00;99.90
5802;DHT22;2927;49.366;8.530;2022-09-21T07:10:30;10.00;99.90
5802;DHT22;2927;49.366;8.530;2022-09-21T07:12:55;10.10;99.90
5802;DHT22;2927;49.366;8.530;2022-09-21T07:15:25;10.00;99.90
5802;DHT22;2927;49.366;8.530;2022-09-21T07:17:53;9.80;99.90
5802;DHT22;2927;49.366;8.530;2022-09-21T07:20:18;9.50;99.90
5802;DHT22;2927;49.366;8.530;2022-09-21T07:22:44;9.50;99.90
5802;DHT22;2927;49.366;8.530;2022-09-21T07:25:09;9.70;99.90
5802;DHT22;2927;49.366;8.530;2022-09-21T07:27:35;10.20;99.90
5802;DHT22;2927;49.366;8.530;2022-09-21T07:30:00;10.40;99.90
5802;DHT22;2927;49.366;8.530;2022-09-21T07:32:26;10.40;99.90
5802;DHT22;2927;49.366;8.530;2022-09-21T07:34:52;10.30;99.90
5802;DHT22;2927;49.366;8.530;2022-09-21T07:37:21;9.90;99.90
5802;DHT22;2927;49.366;8.530;2022-09-21T07:39:48;9.90;99.90
5802;DHT22;2927;49.366;8.530;2022-09-21T07:42:13;10.00;99.90
5802;DHT22;2927;49.366;8.530;2022-09-21T07:44:39;10.20;99.90
5802;DHT22;2927;49.366;8.530;2022-09-21T07:47:05;10.40;99.90
5802;DHT22;2927;49.366;8.530;2022-09-21T07:49:31;10.80;99.90
5802;DHT22;2927;49.366;8.530;2022-09-21T07:51:56;11.30;99.90
5802;DHT22;2927;49.366;8.530;2022-09-21T07:54:22;11.80;99.90
5802;DHT22;2927;49.366;8.530;2022-09-21T07:56:48;12.30;19.80
5802;DHT22;2927;49.366;8.530;2022-09-21T07:59:33;12.00;1.00
5802;DHT22;2927;49.366;8.530;2022-09-21T08:01:59;11.90;22.90
5802;DHT22;2927;49.366;8.530;2022-09-21T08:04:25;12.00;99.90
5802;DHT22;2927;49.366;8.530;2022-09-21T08:06:50;11.60;43.00
5802;DHT22;2927;49.366;8.530;2022-09-21T08:09:16;11.20;99.90
5802;DHT22;2927;49.366;8.530;2022-09-21T08:11:41;11.30;99.90
5802;DHT22;2927;49.366;8.530;2022-09-21T08:14:09;11.20;99.90
5802;DHT22;2927;49.366;8.530;2022-09-21T08:16:36;11.80;99.90
5802;DHT22;2927;49.366;8.530;2022-09-21T08:19:03;12.00;10.40
5802;DHT22;2927;49.366;8.530;2022-09-21T08:21:29;11.80;21.70
5802;DHT22;2927;49.366;8.530;2022-09-21T08:23:55;11.80;19.20
5802;DHT22;2927;49.366;8.530;2022-09-21T08:26:20;11.60;68.70
5802;DHT22;2927;49.366;8.530;2022-09-21T08:28:50;11.90;85.60
5802;DHT22;2927;49.366;8.530;2022-09-21T08:31:20;12.00;1.00
5802;DHT22;2927;49.366;8.530;2022-09-21T08:33:47;12.20;1.00
5802;DHT22;2927;49.366;8.530;2022-09-21T08:36:14;12.60;1.00
5802;DHT22;2927;49.366;8.530;2022-09-21T08:38:39;12.80;1.00
5802;DHT22;2927;49.366;8.530;2022-09-21T08:41:51;12.90;1.00
5802;DHT22;2927;49.366;8.530;2022-09-21T08:44:22;12.90;1.00
5802;DHT22;2927;49.366;8.530;2022-09-21T08:47:02;13.10;1.00
5802;DHT22;2927;49.366;8.530;2022-09-21T08:49:29;13.00;1.00
5802;DHT22;2927;49.366;8.530;2022-09-21T08:52:04;13.30;1.00
5802;DHT22;2927;49.366;8.530;2022-09-21T08:57:12;12.70;1.00
5802;DHT22;2927;49.366;8.530;2022-09-21T08:59:44;12.90;1.00
5802;DHT22;2927;49.366;8.530;2022-09-21T09:07:51;13.10;1.00
5802;DHT22;2927;49.366;8.530;2022-09-21T09:20:45;13.60;1.00
5802;DHT22;2927;49.366;8.530;2022-09-21T09:23:27;13.20;1.00
5802;DHT22;2927;49.366;8.530;2022-09-21T09:26:01;13.50;99.90
5802;DHT22;2927;49.366;8.530;2022-09-21T09:28:36;14.20;1.00
5802;DHT22;2927;49.366;8.530;2022-09-21T09:31:09;14.00;99.90
5802;DHT22;2927;49.366;8.530;2022-09-21T09:36:29;13.90;1.00
5802;DHT22;2927;49.366;8.530;2022-09-21T09:39:00;14.10;1.00
5802;DHT22;2927;49.366;8.530;2022-09-21T09:41:48;14.20;1.00
5802;DHT22;2927;49.366;8.530;2022-09-21T09:45:19;15.10;80.00
5802;DHT22;2927;49.366;8.530;2022-09-21T09:50:10;14.60;1.00
5802;DHT22;2927;49.366;8.530;2022-09-21T09:52:36;14.20;99.90
5802;DHT22;2927;49.366;8.530;2022-09-21T09:55:21;14.10;1.00
5802;DHT22;2927;49.366;8.530;2022-09-21T09:57:48;14.40;1.00
5802;DHT22;2927;49.366;8.530;2022-09-21T10:00:16;15.00;1.00
5802;DHT22;2927;49.366;8.530;2022-09-21T10:02:54;15.10;99.90
5802;DHT22;2927;49.366;8.530;2022-09-21T10:07:48;15.10;1.00
5802;DHT22;2927;49.366;8.530;2022-09-21T10:12:46;15.10;1.00
5802;DHT22;2927;49.366;8.530;2022-09-21T10:15:12;15.20;1.00
5802;DHT22;2927;49.366;8.530;2022-09-21T10:17:38;15.40;1.00
5802;DHT22;2927;49.366;8.530;2022-09-21T10:20:06;15.30;99.90
5802;DHT22;2927;49.366;8.530;2022-09-21T10:22:32;15.50;1.00
5802;DHT22;2927;49.366;8.530;2022-09-21T10:24:59;15.50;99.90
5802;DHT22;2927;49.366;8.530;2022-09-21T10:27:32;15.60;99.90
5802;DHT22;2927;49.366;8.530;2022-09-21T10:29:58;15.70;1.00
5802;DHT22;2927;49.366;8.530;2022-09-21T10:32:26;15.90;1.00
5802;DHT22;2927;49.366;8.530;2022-09-21T10:37:34;15.90;1.00
5802;DHT22;2927;49.366;8.530;2022-09-21T10:40:03;16.10;1.00
5802;DHT22;2927;49.366;8.530;2022-09-21T10:42:40;16.10;1.00
5802;DHT22;2927;49.366;8.530;2022-09-21T10:45:18;16.40;1.00
5802;DHT22;2927;49.366;8.530;2022-09-21T10:48:05;16.20;1.00
5802;DHT22;2927;49.366;8.530;2022-09-21T10:50:38;16.00;1.00
5802;DHT22;2927;49.366;8.530;2022-09-21T10:53:16;16.00;1.00
5802;DHT22;2927;49.366;8.530;2022-09-21T10:58:26;15.70;99.90
5802;DHT22;2927;49.366;8.530;2022-09-21T11:00:54;15.60;1.00
5802;DHT22;2927;49.366;8.530;2022-09-21T11:06:25;15.50;1.00
5802;DHT22;2927;49.366;8.530;2022-09-21T11:09:18;15.50;1.00
5802;DHT22;2927;49.366;8.530;2022-09-21T11:17:39;16.10;1.00
5802;DHT22;2927;49.366;8.530;2022-09-21T11:23:15;16.00;1.00
5802;DHT22;2927;49.366;8.530;2022-09-21T11:26:08;15.90;1.00
5802;DHT22;2927;49.366;8.530;2022-09-21T11:28:57;16.40;1.00
5802;DHT22;2927;49.366;8.530;2022-09-21T11:31:55;16.60;99.90
5802;DHT22;2927;49.366;8.530;2022-09-21T11:37:26;16.40;99.90
5802;DHT22;2927;49.366;8.530;2022-09-21T11:40:09;16.60;99.90
5802;DHT22;2927;49.366;8.530;2022-09-21T11:56:21;17.60;1.00
5802;DHT22;2927;49.366;8.530;2022-09-21T12:01:45;17.30;1.00
5802;DHT22;2927;49.366;8.530;2022-09-21T12:04:50;17.10;1.00
5802;DHT22;2927;49.366;8.530;2022-09-21T12:10:52;17.20;1.00
5802;DHT22;2927;49.366;8.530;2022-09-21T12:13:42;17.30;1.00
5802;DHT22;2927;49.366;8.530;2022-09-21T12:16:37;17.10;1.00
5802;DHT22;2927;49.366;8.530;2022-09-21T12:22:11;17.20;1.00
5802;DHT22;2927;49.366;8.530;2022-09-21T12:24:43;17.50;1.00
5802;DHT22;2927;49.366;8.530;2022-09-21T12:29:56;17.50;1.00
5802;DHT22;2927;49.366;8.530;2022-09-21T12:32:32;17.30;1.00
5802;DHT22;2927;49.366;8.530;2022-09-21T12:35:03;17.30;1.00
5802;DHT22;2927;49.366;8.530;2022-09-21T12:37:39;17.30;1.00
5802;DHT22;2927;49.366;8.530;2022-09-21T12:40:27;17.50;1.00
5802;DHT22;2927;49.366;8.530;2022-09-21T12:43:04;17.50;1.00
5802;DHT22;2927;49.366;8.530;2022-09-21T12:45:40;17.60;1.00
5802;DHT22;2927;49.366;8.530;2022-09-21T12:50:55;18.20;1.00
5802;DHT22;2927;49.366;8.530;2022-09-21T12:53:25;18.40;1.00
5802;DHT22;2927;49.366;8.530;2022-09-21T13:06:56;18.40;1.00
5802;DHT22;2927;49.366;8.530;2022-09-21T13:09:27;18.60;1.00
5802;DHT22;2927;49.366;8.530;2022-09-21T13:11:56;18.40;1.00
5802;DHT22;2927;49.366;8.530;2022-09-21T13:14:27;18.50;1.00
5802;DHT22;2927;49.366;8.530;2022-09-21T13:16:58;18.50;1.00
5802;DHT22;2927;49.366;8.530;2022-09-21T13:19:28;18.10;1.00
5802;DHT22;2927;49.366;8.530;2022-09-21T13:22:21;18.20;1.00
5802;DHT22;2927;49.366;8.530;2022-09-21T13:25:04;18.20;1.00
5802;DHT22;2927;49.366;8.530;2022-09-21T13:27:59;18.30;1.00
5802;DHT22;2927;49.366;8.530;2022-09-21T13:30:49;17.90;1.00
5802;DHT22;2927;49.366;8.530;2022-09-21T13:38:25;17.90;1.00
5802;DHT22;2927;49.366;8.530;2022-09-21T13:40:59;17.80;1.00
5802;DHT22;2927;49.366;8.530;2022-09-21T13:44:36;18.00;1.00
5802;DHT22;2927;49.366;8.530;2022-09-21T13:51:55;18.20;1.00
5802;DHT22;2927;49.366;8.530;2022-09-21T13:54:27;18.20;1.00
5802;DHT22;2927;49.366;8.530;2022-09-21T13:57:03;18.10;1.00
5802;DHT22;2927;49.366;8.530;2022-09-21T13:59:31;18.20;1.00
5802;DHT22;2927;49.366;8.530;2022-09-21T14:01:59;18.00;1.00
5802;DHT22;2927;49.366;8.530;2022-09-21T14:04:30;17.70;1.00
5802;DHT22;2927;49.366;8.530;2022-09-21T14:06:56;17.60;1.00
5802;DHT22;2927;49.366;8.530;2022-09-21T14:09:54;17.60;1.00
5802;DHT22;2927;49.366;8.530;2022-09-21T14:12:22;17.60;1.00
5802;DHT22;2927;49.366;8.530;2022-09-21T14:17:40;17.70;1.00
5802;DHT22;2927;49.366;8.530;2022-09-21T14:20:27;17.80;1.00
5802;DHT22;2927;49.366;8.530;2022-09-21T14:25:52;18.30;1.00
5802;DHT22;2927;49.366;8.530;2022-09-21T14:28:38;18.50;1.00
5802;DHT22;2927;49.366;8.530;2022-09-21T14:31:13;18.50;1.00
5802;DHT22;2927;49.366;8.530;2022-09-21T14:33:44;18.50;1.00
5802;DHT22;2927;49.366;8.530;2022-09-21T14:36:16;18.50;1.00
5802;DHT22;2927;49.366;8.530;2022-09-21T14:38:47;18.40;1.00
5802;DHT22;2927;49.366;8.530;2022-09-21T14:41:18;18.40;99.90
5802;DHT22;2927;49.366;8.530;2022-09-21T14:43:50;18.50;99.90
5802;DHT22;2927;49.366;8.530;2022-09-21T14:52:17;18.10;99.90
5802;DHT22;2927;49.366;8.530;2022-09-21T14:57:44;18.00;99.90
5802;DHT22;2927;49.366;8.530;2022-09-21T15:00:19;18.20;99.90
5802;DHT22;2927;49.366;8.530;2022-09-21T15:02:48;18.40;99.90
5802;DHT22;2927;49.366;8.530;2022-09-21T15:05:28;18.50;99.90
5802;DHT22;2927;49.366;8.530;2022-09-21T15:08:34;18.90;99.90
5802;DHT22;2927;49.366;8.530;2022-09-21T15:16:44;19.40;99.90
5802;DHT22;2927;49.366;8.530;2022-09-21T15:19:25;19.80;99.90
5802;DHT22;2927;49.366;8.530;2022-09-21T15:22:18;20.30;99.90
5802;DHT22;2927;49.366;8.530;2022-09-21T15:24:53;20.50;99.90
5802;DHT22;2927;49.366;8.530;2022-09-21T15:27:21;20.40;99.90
5802;DHT22;2927;49.366;8.530;2022-09-21T15:29:53;20.20;99.90
5802;DHT22;2927;49.366;8.530;2022-09-21T15:32:43;20.00;99.90
5802;DHT22;2927;49.366;8.530;2022-09-21T15:35:25;19.60;99.90
5802;DHT22;2927;49.366;8.530;2022-09-21T15:37:54;19.20;99.90
5802;DHT22;2927;49.366;8.530;2022-09-21T15:40:25;19.10;99.90
5802;DHT22;2927;49.366;8.530;2022-09-21T15:43:31;19.30;99.90
5802;DHT22;2927;49.366;8.530;2022-09-21T15:45:53;19.20;99.90
5802;DHT22;2927;49.366;8.530;2022-09-21T15:48:21;19.30;99.90
5802;DHT22;2927;49.366;8.530;2022-09-21T15:50:55;19.10;99.90
5802;DHT22;2927;49.366;8.530;2022-09-21T15:53:30;19.00;99.90
5802;DHT22;2927;49.366;8.530;2022-09-21T15:55:57;19.00;99.90
5802;DHT22;2927;49.366;8.530;2022-09-21T15:58:35;19.00;99.90
5802;DHT22;2927;49.366;8.530;2022-09-21T16:01:09;19.10;99.90
5802;DHT22;2927;49.366;8.530;2022-09-21T16:03:36;19.10;99.90
5802;DHT22;2927;49.366;8.530;2022-09-21T16:06:24;18.80;99.90
5802;DHT22;2927;49.366;8.530;2022-09-21T16:08:50;18.50;99.90
5802;DHT22;2927;49.366;8.530;2022-09-21T16:14:13;18.20;99.90
5802;DHT22;2927;49.366;8.530;2022-09-21T16:22:34;17.60;99.90
5802;DHT22;2927;49.366;8.530;2022-09-21T16:25:00;17.70;99.90
5802;DHT22;2927;49.366;8.530;2022-09-21T16:27:30;17.70;99.90
5802;DHT22;2927;49.366;8.530;2022-09-21T16:29:57;17.60;99.90
5802;DHT22;2927;49.366;8.530;2022-09-21T16:32:30;17.50;99.90
5802;DHT22;2927;49.366;8.530;2022-09-21T16:35:23;17.30;99.90
5802;DHT22;2927;49.366;8.530;2022-09-21T16:37:52;17.20;99.90
5802;DHT22;2927;49.366;8.530;2022-09-21T16:40:23;17.00;99.90
5802;DHT22;2927;49.366;8.530;2022-09-21T16:42:49;16.90;99.90
5802;DHT22;2927;49.366;8.530;2022-09-21T16:45:28;16.80;99.90
5802;DHT22;2927;49.366;8.530;2022-09-21T16:47:56;16.80;99.90
5802;DHT22;2927;49.366;8.530;2022-09-21T16:50:22;16.70;99.90
5802;DHT22;2927;49.366;8.530;2022-09-21T16:52:48;16.60;99.90
5802;DHT22;2927;49.366;8.530;2022-09-21T16:55:19;16.60;99.90
5802;DHT22;2927;49.366;8.530;2022-09-21T16:57:44;16.50;99.90
5802;DHT22;2927;49.366;8.530;2022-09-21T17:00:15;16.40;99.90
5802;DHT22;2927;49.366;8.530;2022-09-21T17:02:45;16.40;99.90
5802;DHT22;2927;49.366;8.530;2022-09-21T17:05:11;16.30;99.90
5802;DHT22;2927;49.366;8.530;2022-09-21T17:07:55;16.20;1.00
5802;DHT22;2927;49.366;8.530;2022-09-21T17:10:23;16.10;99.90
5802;DHT22;2927;49.366;8.530;2022-09-21T17:12:53;16.00;99.90
5802;DHT22;2927;49.366;8.530;2022-09-21T17:15:20;16.00;99.90
5802;DHT22;2927;49.366;8.530;2022-09-21T17:17:47;15.90;1.00
5802;DHT22;2927;49.366;8.530;2022-09-21T17:20:36;15.80;1.00
5802;DHT22;2927;49.366;8.530;2022-09-21T17:23:03;15.80;1.00
5802;DHT22;2927;49.366;8.530;2022-09-21T17:25:30;15.60;1.00
5802;DHT22;2927;49.366;8.530;2022-09-21T17:27:58;15.60;1.00
5802;DHT22;2927;49.366;8.530;2022-09-21T17:30:24;15.50;1.00
5802;DHT22;2927;49.366;8.530;2022-09-21T17:32:51;15.40;1.00
5802;DHT22;2927;49.366;8.530;2022-09-21T17:35:32;15.30;1.00
5802;DHT22;2927;49.366;8.530;2022-09-21T17:38:00;15.20;1.00
5802;DHT22;2927;49.366;8.530;2022-09-21T17:40:27;15.10;1.00
5802;DHT22;2927;49.366;8.530;2022-09-21T17:43:12;15.00;1.00
5802;DHT22;2927;49.366;8.530;2022-09-21T17:45:45;15.00;1.00
5802;DHT22;2927;49.366;8.530;2022-09-21T17:48:19;14.90;1.00
5802;DHT22;2927;49.366;8.530;2022-09-21T17:50:45;14.80;1.00
5802;DHT22;2927;49.366;8.530;2022-09-21T17:53:11;14.70;1.00
5802;DHT22;2927;49.366;8.530;2022-09-21T17:56:10;14.70;1.00
5802;DHT22;2927;49.366;8.530;2022-09-21T18:01:36;14.60;1.00
5802;DHT22;2927;49.366;8.530;2022-09-21T18:04:06;14.50;1.00
5802;DHT22;2927;49.366;8.530;2022-09-21T18:06:33;14.40;1.00
5802;DHT22;2927;49.366;8.530;2022-09-21T18:08:59;14.40;1.00
5802;DHT22;2927;49.366;8.530;2022-09-21T18:25:13;14.10;1.00
5802;DHT22;2927;49.366;8.530;2022-09-21T18:27:40;13.90;1.00
5802;DHT22;2927;49.366;8.530;2022-09-21T18:30:10;13.80;1.00
5802;DHT22;2927;49.366;8.530;2022-09-21T18:32:45;13.80;1.00
5802;DHT22;2927;49.366;8.530;2022-09-21T18:40:56;13.60;1.00
5802;DHT22;2927;49.366;8.530;2022-09-21T18:43:36;13.60;1.00
5802;DHT22;2927;49.366;8.530;2022-09-21T18:51:57;13.40;1.00
5802;DHT22;2927;49.366;8.530;2022-09-21T18:54:24;13.40;1.00
5802;DHT22;2927;49.366;8.530;2022-09-21T18:56:52;13.30;1.00
5802;DHT22;2927;49.366;8.530;2022-09-21T18:59:18;13.40;34.50
5802;DHT22;2927;49.366;8.530;2022-09-21T19:01:45;13.30;99.80
5802;DHT22;2927;49.366;8.530;2022-09-21T19:04:11;13.20;99.90
5802;DHT22;2927;49.366;8.530;2022-09-21T19:07:02;13.20;99.90
5802;DHT22;2927;49.366;8.530;2022-09-21T19:12:22;13.00;99.90
5802;DHT22;2927;49.366;8.530;2022-09-21T19:17:56;12.90;1.00
5802;DHT22;2927;49.366;8.530;2022-09-21T19:23:59;12.80;99.90
5802;DHT22;2927;49.366;8.530;2022-09-21T19:26:53;12.70;1.00
5802;DHT22;2927;49.366;8.530;2022-09-21T19:32:34;12.50;99.90
5802;DHT22;2927;49.366;8.530;2022-09-21T19:35:20;12.30;99.90
5802;DHT22;2927;49.366;8.530;2022-09-21T19:37:47;12.20;1.00
5802;DHT22;2927;49.366;8.530;2022-09-21T19:40:15;12.10;1.00
5802;DHT22;2927;49.366;8.530;2022-09-21T19:45:24;12.00;99.90
5802;DHT22;2927;49.366;8.530;2022-09-21T19:47:53;11.90;99.90
5802;DHT22;2927;49.366;8.530;2022-09-21T19:50:25;11.90;1.00
5802;DHT22;2927;49.366;8.530;2022-09-21T19:52:54;11.80;1.00
5802;DHT22;2927;49.366;8.530;2022-09-21T19:55:42;11.80;1.00
5802;DHT22;2927;49.366;8.530;2022-09-21T19:58:26;11.80;1.00
5802;DHT22;2927;49.366;8.530;2022-09-21T20:01:12;11.70;1.00
5802;DHT22;2927;49.366;8.530;2022-09-21T20:03:44;11.60;1.00
5802;DHT22;2927;49.366;8.530;2022-09-21T20:06:32;11.60;58.20
5802;DHT22;2927;49.366;8.530;2022-09-21T20:09:07;11.50;99.90
5802;DHT22;2927;49.366;8.530;2022-09-21T20:12:01;11.50;99.90
5802;DHT22;2927;49.366;8.530;2022-09-21T20:14:47;11.50;99.90